Time;durP1;ratioP1;P1;durP2;ratioP2;P2;SDS_P1;SDS_P2;PMS_P1;PMS_P2;Temp;Humidity;BMP_temperature;BMP_pressure;BME280_temperature;BME280_humidity;BME280_pressure;Samples;Min_cycle;Max_cycle;Signal;HPM_P1;HPM_P2
2024/02/05 00:02:07;;;;;;;0.22;0.10;;;9.90;99.90;;;;;;5043007;28;20032;-75
2024/02/05 00:04:33;;;;;;;0.00;0.00;;;9.80;99.90;;;;;;5040201;28;20032;-75
2024/02/05 00:06:59;;;;;;;0.13;0.08;;;9.80;99.90;;;;;;5045035;28;20693;-75
2024/02/05 00:09:25;;;;;;;0.10;0.10;;;9.80;99.90;;;;;;5040410;28;20021;-75
2024/02/05 00:11:50;;;;;;;0.00;0.00;;;9.80;99.90;;;;;;5041469;28;20029;-75
2024/02/05 00:14:17;;;;;;;0.43;0.30;;;9.80;99.90;;;;;;5042252;28;20025;-75
2024/02/05 00:16:43;;;;;;;0.20;0.10;;;9.80;99.90;;;;;;5039089;28;20033;-75
2024/02/05 00:19:09;;;;;;;0.03;0.00;;;9.80;99.90;;;;;;5040596;28;20033;-75
2024/02/05 00:21:34;;;;;;;0.10;0.00;;;9.80;99.90;;;;;;5039811;28;20025;-75
2024/02/05 00:24:00;;;;;;;0.00;0.00;;;9.80;99.90;;;;;;5020257;28;20164;-75
2024/02/05 00:26:26;;;;;;;0.13;0.10;;;9.80;99.90;;;;;;5043088;28;20040;-75
2024/02/05 00:28:52;;;;;;;0.28;0.10;;;9.80;99.90;;;;;;5043379;28;20107;-75
2024/02/05 00:31:17;;;;;;;0.00;0.00;;;9.80;99.90;;;;;;5044067;28;20029;-75
2024/02/05 00:33:43;;;;;;;0.38;0.20;;;9.70;99.90;;;;;;5038880;28;20820;-75
2024/02/05 00:36:09;;;;;;;0.10;0.00;;;9.80;99.90;;;;;;5037523;28;20500;-75
2024/02/05 00:38:35;;;;;;;0.32;0.25;;;9.80;99.90;;;;;;5040712;28;20112;-75
2024/02/05 00:41:00;;;;;;;0.93;0.30;;;9.80;99.90;;;;;;5036393;28;20029;-75
2024/02/05 00:43:26;;;;;;;0.00;0.00;;;9.80;99.90;;;;;;5041131;28;20078;-75
2024/02/05 00:45:52;;;;;;;0.10;0.10;;;9.80;99.90;;;;;;5040863;28;20017;-75
2024/02/05 00:48:18;;;;;;;0.10;0.10;;;9.70;99.90;;;;;;5042828;28;20428;-75
2024/02/05 00:50:43;;;;;;;0.00;0.00;;;9.80;99.90;;;;;;5040558;28;20121;-75
2024/02/05 00:53:09;;;;;;;0.05;0.05;;;9.80;99.90;;;;;;5041911;28;20511;-74
2024/02/05 00:55:35;;;;;;;0.08;0.08;;;9.80;99.90;;;;;;5042943;28;20104;-75
2024/02/05 00:58:01;;;;;;;0.25;0.20;;;9.80;99.90;;;;;;5036850;28;20033;-75
2024/02/05 01:00:26;;;;;;;0.25;0.10;;;9.80;99.90;;;;;;5037841;28;20513;-75
2024/02/05 01:02:52;;;;;;;0.05;0.05;;;9.90;99.90;;;;;;5042040;28;20035;-75
2024/02/05 01:05:18;;;;;;;0.08;0.08;;;9.80;99.90;;;;;;5041722;28;20032;-75
2024/02/05 01:07:44;;;;;;;0.03;0.03;;;9.80;99.90;;;;;;5037303;28;20030;-75
2024/02/05 01:10:10;;;;;;;0.20;0.20;;;9.80;99.90;;;;;;5043271;28;20051;-75
2024/02/05 01:12:37;;;;;;;0.40;0.10;;;9.80;99.90;;;;;;5042720;28;20021;-75
2024/02/05 01:15:07;;;;;;;0.30;0.20;;;9.80;99.90;;;;;;5037092;28;20026;-75
2024/02/05 01:17:33;;;;;;;0.10;0.10;;;9.80;99.90;;;;;;5039302;28;20048;-75
2024/02/05 01:19:59;;;;;;;2.55;0.13;;;9.80;99.90;;;;;;5044016;28;20026;-75
2024/02/05 01:22:26;;;;;;;0.80;0.15;;;9.80;99.90;;;;;;5042296;28;20033;-75
2024/02/05 01:24:51;;;;;;;0.85;0.10;;;9.80;99.90;;;;;;5041925;28;20070;-75
2024/02/05 01:27:17;;;;;;;0.40;0.10;;;9.80;99.90;;;;;;5042653;28;20033;-75
2024/02/05 01:29:43;;;;;;;0.03;0.03;;;9.80;99.90;;;;;;5041231;28;20103;-75
2024/02/05 01:32:11;;;;;;;0.30;0.13;;;9.80;99.90;;;;;;5041027;28;20090;-75
2024/02/05 01:34:38;;;;;;;0.13;0.13;;;9.80;99.90;;;;;;5037050;28;20049;-75
2024/02/05 01:37:04;;;;;;;0.03;0.03;;;9.80;99.90;;;;;;5056772;28;20025;-75
2024/02/05 01:39:29;;;;;;;0.10;0.10;;;9.70;99.90;;;;;;5037719;28;20021;-75
2024/02/05 01:41:55;;;;;;;0.00;0.00;;;9.70;99.90;;;;;;5055750;28;20025;-75
2024/02/05 01:44:21;;;;;;;0.10;0.00;;;9.70;99.90;;;;;;5038878;28;20500;-75
2024/02/05 01:46:50;;;;;;;0.20;0.10;;;9.70;99.90;;;;;;5038554;28;20029;-76
2024/02/05 01:49:16;;;;;;;0.10;0.10;;;9.70;99.90;;;;;;5058880;28;20024;-76
2024/02/05 01:51:49;;;;;;;0.20;0.10;;;9.70;99.90;;;;;;5042292;28;20104;-76
2024/02/05 01:54:28;;;;;;;0.25;0.20;;;9.70;99.90;;;;;;5040151;28;20047;-75
2024/02/05 01:56:56;;;;;;;5.05;1.42;;;9.70;99.90;;;;;;5035253;28;20401;-75
2024/02/05 01:59:22;;;;;;;1.35;0.60;;;9.70;99.90;;;;;;5039587;28;20036;-76
2024/02/05 02:01:49;;;;;;;0.10;0.10;;;9.70;99.90;;;;;;5039956;28;20032;-75
2024/02/05 02:04:14;;;;;;;0.28;0.20;;;9.70;99.90;;;;;;5048988;28;20033;-75
2024/02/05 02:06:41;;;;;;;0.20;0.10;;;9.70;99.90;;;;;;5030223;28;20039;-75
2024/02/05 02:09:10;;;;;;;0.40;0.10;;;9.70;99.90;;;;;;5056990;28;20072;-75
2024/02/05 02:11:38;;;;;;;0.65;0.20;;;9.70;99.90;;;;;;5022080;28;20651;-75
2024/02/05 02:14:04;;;;;;;0.10;0.10;;;9.70;99.90;;;;;;5031680;28;20057;-75
2024/02/05 02:16:30;;;;;;;0.60;0.10;;;9.60;99.90;;;;;;5054326;28;20024;-76
2024/02/05 02:18:59;;;;;;;0.30;0.13;;;9.60;99.90;;;;;;5038536;28;20615;-76
2024/02/05 02:21:26;;;;;;;1.52;0.10;;;9.60;99.90;;;;;;5037810;28;20029;-75
2024/02/05 02:23:52;;;;;;;0.35;0.20;;;9.60;99.90;;;;;;5035413;28;20544;-75
2024/02/05 02:26:18;;;;;;;0.30;0.25;;;9.50;99.90;;;;;;5039452;28;20029;-75
2024/02/05 02:28:44;;;;;;;2.80;0.20;;;9.50;99.90;;;;;;5038611;28;20029;-75
2024/02/05 02:31:09;;;;;;;0.10;0.00;;;9.50;99.90;;;;;;5042775;28;20127;-75
2024/02/05 02:33:48;;;;;;;0.00;0.00;;;9.60;99.90;;;;;;5037591;28;20389;-75
2024/02/05 02:36:22;;;;;;;3.70;0.43;;;9.60;99.90;;;;;;5036595;28;20115;-75
2024/02/05 02:39:11;;;;;;;2.17;0.25;;;9.60;99.90;;;;;;5037641;28;20457;-75
2024/02/05 02:41:41;;;;;;;0.65;0.25;;;9.50;99.90;;;;;;5046475;28;20061;-75
2024/02/05 02:44:07;;;;;;;0.13;0.10;;;9.60;99.90;;;;;;5033493;28;20125;-75
2024/02/05 02:46:33;;;;;;;0.13;0.10;;;9.60;99.90;;;;;;5018668;28;20096;-75
2024/02/05 02:48:59;;;;;;;0.52;0.52;;;9.60;99.90;;;;;;5055065;28;20072;-75
2024/02/05 02:51:27;;;;;;;1.35;0.10;;;9.60;99.90;;;;;;5030588;28;20053;-75
2024/02/05 02:53:53;;;;;;;0.95;0.32;;;9.60;99.90;;;;;;5026106;28;20075;-75
2024/02/05 02:56:19;;;;;;;0.57;0.35;;;9.60;99.90;;;;;;5033567;28;20037;-75
2024/02/05 02:58:45;;;;;;;0.45;0.32;;;9.60;99.90;;;;;;5031547;28;20061;-75
2024/02/05 03:01:11;;;;;;;0.90;0.45;;;9.60;99.90;;;;;;5041390;28;20044;-75
2024/02/05 03:03:37;;;;;;;0.47;0.10;;;9.70;99.90;;;;;;5036195;28;20485;-75
2024/02/05 03:06:03;;;;;;;0.22;0.20;;;9.60;99.90;;;;;;5036838;28;20041;-75
2024/02/05 03:08:28;;;;;;;0.80;0.80;;;9.60;99.90;;;;;;5030750;28;20513;-75
2024/02/05 03:10:54;;;;;;;0.38;0.10;;;9.60;99.90;;;;;;5036941;28;20041;-75
2024/02/05 03:13:21;;;;;;;0.25;0.15;;;9.60;99.90;;;;;;5027557;28;20049;-75
2024/02/05 03:15:46;;;;;;;0.28;0.20;;;9.60;99.90;;;;;;5036376;28;20044;-75
2024/02/05 03:18:13;;;;;;;0.10;0.10;;;9.60;99.90;;;;;;5034040;28;20025;-75
2024/02/05 03:20:42;;;;;;;0.10;0.10;;;9.60;99.90;;;;;;5033040;28;20200;-75
2024/02/05 03:23:10;;;;;;;1.10;0.32;;;9.60;99.90;;;;;;5045457;28;20112;-75
2024/02/05 03:25:37;;;;;;;3.83;0.50;;;9.70;99.90;;;;;;5036312;28;20385;-75
2024/02/05 03:28:04;;;;;;;0.20;0.13;;;9.70;99.90;;;;;;5033584;28;20048;-75
2024/02/05 03:30:34;;;;;;;0.63;0.30;;;9.60;99.90;;;;;;5020393;28;20587;-75
2024/02/05 03:33:02;;;;;;;1.25;0.25;;;9.70;99.90;;;;;;5034428;28;20021;-75
2024/02/05 03:35:29;;;;;;;2.13;0.40;;;9.70;99.90;;;;;;5053134;28;20028;-75
2024/02/05 03:37:56;;;;;;;0.20;0.20;;;9.60;99.90;;;;;;5035242;28;20112;-75
2024/02/05 03:40:23;;;;;;;0.57;0.45;;;9.60;99.90;;;;;;5034942;28;20075;-76
2024/02/05 03:42:53;;;;;;;0.35;0.30;;;9.60;99.90;;;;;;5029699;28;20049;-75
2024/02/05 03:45:19;;;;;;;0.00;0.00;;;9.60;99.90;;;;;;5037129;28;20032;-75
2024/02/05 03:47:46;;;;;;;1.35;0.65;;;9.60;99.90;;;;;;5029037;28;20096;-75
2024/02/05 03:50:12;;;;;;;1.38;0.30;;;9.70;99.90;;;;;;5035622;28;20036;-75
2024/02/05 03:52:43;;;;;;;0.40;0.40;;;9.70;99.90;;;;;;5035275;28;20103;-74
2024/02/05 03:55:10;;;;;;;0.55;0.40;;;9.70;99.90;;;;;;5014383;28;20022;-75
2024/02/05 03:57:56;;;;;;;4.47;0.30;;;9.70;99.90;;;;;;5031935;28;20555;-75
2024/02/05 04:00:21;;;;;;;1.13;0.63;;;9.70;99.90;;;;;;5034632;28;20025;-75
2024/02/05 04:02:47;;;;;;;0.10;0.10;;;9.70;99.90;;;;;;5034643;28;20056;-75
2024/02/05 04:05:13;;;;;;;1.40;0.77;;;9.70;99.90;;;;;;5036562;28;20025;-75
2024/02/05 04:07:38;;;;;;;3.35;0.40;;;9.70;99.90;;;;;;5033227;28;20029;-75
2024/02/05 04:10:06;;;;;;;0.95;0.35;;;9.70;99.90;;;;;;5038735;28;20021;-75
2024/02/05 04:12:33;;;;;;;1.00;0.35;;;9.70;99.90;;;;;;5036272;28;20028;-75
2024/02/05 04:14:59;;;;;;;0.90;0.73;;;9.70;99.90;;;;;;5035937;28;20030;-75
2024/02/05 04:17:24;;;;;;;0.80;0.43;;;9.70;99.90;;;;;;5037096;28;20037;-75
2024/02/05 04:19:51;;;;;;;1.23;0.50;;;9.70;99.90;;;;;;5023119;28;20449;-75
2024/02/05 04:22:16;;;;;;;1.20;0.38;;;9.70;99.90;;;;;;5058900;28;20105;-75
2024/02/05 04:24:42;;;;;;;3.60;0.40;;;9.60;99.90;;;;;;5037937;28;20562;-75
2024/02/05 04:27:11;;;;;;;3.60;0.95;;;9.60;99.90;;;;;;5036572;28;20051;-75
2024/02/05 04:29:39;;;;;;;0.63;0.45;;;9.60;99.90;;;;;;5036541;28;21619;-75
2024/02/05 04:32:05;;;;;;;0.50;0.17;;;9.60;99.90;;;;;;5035355;28;20029;-75
2024/02/05 04:34:34;;;;;;;0.73;0.45;;;9.60;99.90;;;;;;5023967;28;20079;-75
2024/02/05 04:36:59;;;;;;;0.22;0.17;;;9.50;99.90;;;;;;5036239;28;20040;-75
2024/02/05 04:39:25;;;;;;;0.38;0.10;;;9.50;99.90;;;;;;5038095;28;20022;-76
2024/02/05 04:41:51;;;;;;;1.00;0.35;;;9.40;99.90;;;;;;5039225;28;20079;-75
2024/02/05 04:44:17;;;;;;;0.30;0.25;;;9.40;99.90;;;;;;5038313;28;20033;-75
2024/02/05 04:46:44;;;;;;;0.60;0.40;;;9.30;99.90;;;;;;5032291;28;20466;-75
2024/02/05 04:49:10;;;;;;;0.68;0.32;;;9.30;99.90;;;;;;5018237;28;20022;-75
2024/02/05 04:51:36;;;;;;;1.15;0.25;;;9.30;99.90;;;;;;5037086;28;20062;-75
2024/02/05 04:54:03;;;;;;;0.52;0.25;;;9.30;99.90;;;;;;5037733;28;20053;-75
2024/02/05 04:56:29;;;;;;;0.43;0.30;;;9.10;99.90;;;;;;5042231;28;20021;-75
2024/02/05 04:58:55;;;;;;;2.63;0.98;;;9.10;99.90;;;;;;5048680;28;20055;-75
2024/02/05 05:01:20;;;;;;;2.92;0.73;;;9.20;99.90;;;;;;5036890;28;20037;-75
2024/02/05 05:03:46;;;;;;;0.50;0.20;;;9.00;99.90;;;;;;5037371;28;20033;-75
2024/02/05 05:06:12;;;;;;;0.90;0.30;;;8.90;99.90;;;;;;5023664;28;20378;-75
2024/02/05 05:08:38;;;;;;;0.93;0.68;;;8.90;99.90;;;;;;5039971;28;20079;-75
2024/02/05 05:11:03;;;;;;;0.40;0.32;;;8.90;99.90;;;;;;5035374;28;20096;-75
2024/02/05 05:13:29;;;;;;;1.52;0.40;;;8.90;99.90;;;;;;5036339;28;20026;-75
2024/02/05 05:15:56;;;;;;;2.38;0.40;;;8.90;99.90;;;;;;5032923;28;20029;-75
2024/02/05 05:18:23;;;;;;;0.85;0.50;;;8.90;99.90;;;;;;5055331;28;20026;-75
2024/02/05 05:20:49;;;;;;;1.30;0.32;;;8.80;99.90;;;;;;5039268;28;20036;-75
2024/02/05 05:23:17;;;;;;;5.30;0.50;;;8.80;99.90;;;;;;5016448;28;20037;-76
2024/02/05 05:25:43;;;;;;;2.58;0.45;;;8.90;99.90;;;;;;5037794;28;20039;-75
2024/02/05 05:28:09;;;;;;;2.05;0.60;;;8.90;99.90;;;;;;5053700;28;20041;-74
2024/02/05 05:30:35;;;;;;;0.88;0.57;;;8.90;99.90;;;;;;5041788;28;20028;-74
2024/02/05 05:33:01;;;;;;;1.98;0.63;;;8.80;99.90;;;;;;5034351;28;20037;-75
2024/02/05 05:35:26;;;;;;;7.05;0.77;;;8.90;99.90;;;;;;5037607;28;20029;-74
2024/02/05 05:37:52;;;;;;;0.13;0.10;;;8.90;99.90;;;;;;5034553;28;20380;-76
2024/02/05 05:40:18;;;;;;;0.95;0.77;;;8.90;99.90;;;;;;5043068;28;20017;-75
2024/02/05 05:42:44;;;;;;;0.55;0.40;;;8.80;99.90;;;;;;5037408;28;20505;-74
2024/02/05 05:45:10;;;;;;;1.25;0.68;;;8.80;99.90;;;;;;5032525;28;20030;-73
2024/02/05 05:47:38;;;;;;;0.52;0.32;;;8.80;99.90;;;;;;5031268;28;20612;-76
2024/02/05 05:50:04;;;;;;;2.20;0.82;;;8.90;99.90;;;;;;5049940;28;20057;-76
2024/02/05 05:52:31;;;;;;;0.85;0.30;;;8.90;99.90;;;;;;5032423;28;20021;-75
2024/02/05 05:54:57;;;;;;;1.75;0.52;;;8.80;99.90;;;;;;5031002;28;20029;-75
2024/02/05 05:57:23;;;;;;;0.43;0.38;;;8.90;99.90;;;;;;5032004;28;20078;-75
2024/02/05 05:59:49;;;;;;;2.15;0.68;;;8.90;99.90;;;;;;5032105;28;20489;-75
2024/02/05 06:02:15;;;;;;;0.50;0.32;;;9.00;99.90;;;;;;5046816;28;20116;-76
2024/02/05 06:04:41;;;;;;;2.08;0.40;;;8.90;99.90;;;;;;5030248;28;20155;-75
2024/02/05 06:07:08;;;;;;;0.80;0.60;;;8.90;99.90;;;;;;5036826;28;20063;-75
2024/02/05 06:09:37;;;;;;;2.83;0.82;;;8.90;99.90;;;;;;5036434;28;20048;-75
2024/02/05 06:12:04;;;;;;;6.07;1.08;;;8.90;99.90;;;;;;5035876;28;20025;-75
2024/02/05 06:14:30;;;;;;;2.67;0.43;;;8.90;99.90;;;;;;5027339;28;20038;-75
2024/02/05 06:16:56;;;;;;;0.43;0.40;;;8.90;99.90;;;;;;5029505;28;20413;-75
2024/02/05 06:19:22;;;;;;;4.22;0.75;;;8.90;99.90;;;;;;5031928;28;20040;-75
2024/02/05 06:21:47;;;;;;;2.50;0.82;;;8.90;99.90;;;;;;5031849;28;20025;-75
2024/02/05 06:24:14;;;;;;;0.68;0.40;;;8.90;99.90;;;;;;5031402;28;20032;-75
2024/02/05 06:26:41;;;;;;;6.03;0.73;;;8.90;99.90;;;;;;5046171;28;20068;-76
2024/02/05 06:29:07;;;;;;;4.88;1.00;;;8.90;99.90;;;;;;5020918;28;20029;-76
2024/02/05 06:31:33;;;;;;;0.52;0.52;;;8.90;99.90;;;;;;5046862;28;20030;-76
2024/02/05 06:33:59;;;;;;;7.57;1.00;;;9.00;99.90;;;;;;5029217;28;20398;-71
2024/02/05 06:36:25;;;;;;;1.48;1.10;;;9.00;99.90;;;;;;5027124;28;20033;-72
2024/02/05 06:38:51;;;;;;;0.60;0.50;;;8.90;99.90;;;;;;5036289;28;20175;-71
2024/02/05 06:41:16;;;;;;;0.63;0.50;;;8.90;99.90;;;;;;5033074;28;20037;-70
2024/02/05 06:43:42;;;;;;;1.15;0.88;;;8.90;99.90;;;;;;5030374;28;20029;-71
2024/02/05 06:46:09;;;;;;;1.23;0.55;;;8.90;99.90;;;;;;5031781;28;20063;-70
2024/02/05 06:48:35;;;;;;;1.23;0.68;;;8.90;99.90;;;;;;5033623;28;20029;-70
2024/02/05 06:51:01;;;;;;;0.80;0.63;;;8.90;99.90;;;;;;5030889;28;20029;-71
2024/02/05 06:53:27;;;;;;;4.78;1.23;;;8.90;99.90;;;;;;5029735;28;20033;-71
2024/02/05 06:55:53;;;;;;;7.88;0.70;;;8.90;99.90;;;;;;5032822;28;20112;-71
2024/02/05 06:58:19;;;;;;;3.20;0.93;;;8.90;99.90;;;;;;5031800;28;20520;-71
2024/02/05 07:00:46;;;;;;;1.77;1.02;;;8.90;99.90;;;;;;5033752;28;20468;-71
2024/02/05 07:03:12;;;;;;;2.13;1.13;;;8.90;99.90;;;;;;5029709;28;20053;-71
2024/02/05 07:05:38;;;;;;;0.93;0.32;;;8.90;99.90;;;;;;5030948;28;20033;-71
2024/02/05 07:08:04;;;;;;;3.80;0.88;;;8.90;99.90;;;;;;5030129;28;20038;-70
2024/02/05 07:10:30;;;;;;;0.85;0.65;;;8.90;99.90;;;;;;5031089;28;20028;-71
2024/02/05 07:12:56;;;;;;;0.60;0.47;;;8.90;99.90;;;;;;5028337;28;20029;-71
2024/02/05 07:15:22;;;;;;;1.55;1.02;;;8.90;99.90;;;;;;5027200;28;20025;-70
2024/02/05 07:17:47;;;;;;;1.17;0.82;;;8.90;99.90;;;;;;5027176;28;20037;-71
2024/02/05 07:20:13;;;;;;;1.88;0.77;;;8.90;99.90;;;;;;5045765;28;20075;-70
2024/02/05 07:22:39;;;;;;;1.05;0.73;;;9.00;99.90;;;;;;5029944;28;20440;-70
2024/02/05 07:25:05;;;;;;;0.30;0.30;;;9.00;99.90;;;;;;5034179;28;20440;-70
2024/02/05 07:27:33;;;;;;;1.70;0.90;;;9.00;99.90;;;;;;5029253;28;20037;-70
2024/02/05 07:29:59;;;;;;;4.13;2.13;;;9.00;99.90;;;;;;5036506;28;20117;-70
2024/02/05 07:32:24;;;;;;;6.63;1.73;;;9.10;99.90;;;;;;5044142;28;20116;-71
2024/02/05 07:34:50;;;;;;;2.92;0.90;;;9.10;99.90;;;;;;5029198;28;20030;-71
2024/02/05 07:37:16;;;;;;;7.00;0.80;;;9.10;99.90;;;;;;5029420;28;20029;-68
2024/02/05 07:39:42;;;;;;;1.75;0.50;;;9.10;99.90;;;;;;5029902;28;20387;-67
2024/02/05 07:42:07;;;;;;;6.93;1.20;;;9.20;99.90;;;;;;5044704;28;20030;-66
2024/02/05 07:44:33;;;;;;;2.08;1.02;;;9.20;99.90;;;;;;5004341;28;20502;-64
2024/02/05 07:46:59;;;;;;;1.13;0.70;;;9.20;99.90;;;;;;5033376;28;20037;-59
2024/02/05 07:49:26;;;;;;;1.55;0.73;;;9.20;99.90;;;;;;5033300;28;20053;-61
2024/02/05 07:51:54;;;;;;;3.40;1.08;;;9.30;99.90;;;;;;5033985;28;20021;-60
2024/02/05 07:54:19;;;;;;;7.93;1.85;;;9.20;99.90;;;;;;5032037;28;20029;-70
2024/02/05 07:56:46;;;;;;;3.85;1.23;;;9.30;99.90;;;;;;5033464;28;20398;-67
2024/02/05 07:59:12;;;;;;;1.63;0.65;;;9.30;99.90;;;;;;5036093;28;20164;-67
2024/02/05 08:01:38;;;;;;;2.15;0.88;;;9.40;99.90;;;;;;5045793;28;20034;-66
2024/02/05 08:04:05;;;;;;;5.90;1.42;;;9.40;99.90;;;;;;5032010;28;20038;-66
2024/02/05 08:06:32;;;;;;;2.90;1.15;;;9.30;99.90;;;;;;5033209;28;20037;-66
2024/02/05 08:09:04;;;;;;;1.58;0.75;;;9.40;99.90;;;;;;5031339;28;20025;-67
2024/02/05 08:11:30;;;;;;;11.18;1.17;;;9.50;99.90;;;;;;5033342;28;20032;-66
2024/02/05 08:13:56;;;;;;;3.60;1.45;;;9.50;99.90;;;;;;5032265;28;20034;-66
2024/02/05 08:16:22;;;;;;;6.55;1.92;;;9.50;99.90;;;;;;5021042;28;20033;-67
2024/02/05 08:18:47;;;;;;;3.78;0.93;;;9.50;99.90;;;;;;5033442;28;20044;-66
2024/02/05 08:21:14;;;;;;;2.83;0.82;;;9.50;99.90;;;;;;5033193;28;20059;-66
2024/02/05 08:23:40;;;;;;;2.33;0.77;;;9.60;99.90;;;;;;5048059;28;20034;-67
2024/02/05 08:26:06;;;;;;;2.70;1.15;;;9.60;99.90;;;;;;5031529;28;20033;-67
2024/02/05 08:28:33;;;;;;;3.05;1.73;;;9.60;99.90;;;;;;5032024;28;20028;-66
2024/02/05 08:30:59;;;;;;;2.20;1.13;;;9.60;99.90;;;;;;5032591;28;20087;-66
2024/02/05 08:33:25;;;;;;;2.08;1.23;;;9.60;99.90;;;;;;5032438;28;20032;-66
2024/02/05 08:35:52;;;;;;;6.13;0.47;;;9.60;99.90;;;;;;5031544;28;20053;-66
2024/02/05 08:38:18;;;;;;;8.50;1.27;;;9.60;99.90;;;;;;5048435;28;20546;-66
2024/02/05 08:40:45;;;;;;;1.23;0.95;;;9.60;99.90;;;;;;5032507;28;20112;-66
2024/02/05 08:43:11;;;;;;;2.33;1.30;;;9.70;99.90;;;;;;5032620;28;20033;-67
2024/02/05 08:45:37;;;;;;;3.05;1.27;;;9.70;99.90;;;;;;5031689;28;20044;-67
2024/02/05 08:48:04;;;;;;;0.70;0.65;;;9.70;99.90;;;;;;5033061;28;20386;-66
2024/02/05 08:50:33;;;;;;;1.92;1.23;;;9.80;99.90;;;;;;5032311;28;20034;-67
2024/02/05 08:53:00;;;;;;;1.00;0.90;;;9.80;99.90;;;;;;5032328;28;20017;-66
2024/02/05 08:55:26;;;;;;;3.33;1.63;;;9.80;99.90;;;;;;5032124;28;20033;-67
2024/02/05 08:57:52;;;;;;;3.15;1.17;;;9.80;99.90;;;;;;5033014;28;20117;-65
2024/02/05 09:00:19;;;;;;;11.38;2.30;;;10.00;99.90;;;;;;5039756;28;20108;-65
2024/02/05 09:02:48;;;;;;;2.00;0.82;;;10.00;99.90;;;;;;5033012;28;20033;-66
2024/02/05 09:05:14;;;;;;;1.40;0.70;;;9.90;99.90;;;;;;5032104;28;20056;-66
2024/02/05 09:07:40;;;;;;;1.98;0.93;;;10.00;99.90;;;;;;5032714;28;20083;-66
2024/02/05 09:10:09;;;;;;;10.80;1.02;;;10.10;99.90;;;;;;5032779;28;20029;-66
2024/02/05 09:12:35;;;;;;;6.05;1.20;;;10.00;99.90;;;;;;5032386;28;20045;-67
2024/02/05 09:15:02;;;;;;;1.67;1.13;;;10.00;99.90;;;;;;5031250;28;20063;-66
2024/02/05 09:17:28;;;;;;;1.80;0.88;;;10.00;99.90;;;;;;5030995;28;20036;-66
2024/02/05 09:19:54;;;;;;;5.05;0.80;;;10.00;99.90;;;;;;5032296;28;20116;-66
2024/02/05 09:22:20;;;;;;;1.17;0.80;;;10.00;99.90;;;;;;5032686;28;20040;-67
2024/02/05 09:24:45;;;;;;;2.25;1.08;;;10.00;99.90;;;;;;5032038;28;20091;-66
2024/02/05 09:27:12;;;;;;;5.80;1.40;;;10.00;99.90;;;;;;5047979;28;20419;-66
2024/02/05 09:29:37;;;;;;;3.75;0.95;;;10.00;99.90;;;;;;5030921;28;20053;-66
2024/02/05 09:32:06;;;;;;;6.38;1.17;;;9.90;99.90;;;;;;5032284;28;20056;-66
2024/02/05 09:34:33;;;;;;;4.82;1.17;;;10.00;99.90;;;;;;5031047;28;20034;-66
2024/02/05 09:37:00;;;;;;;4.40;1.15;;;9.90;99.90;;;;;;5029762;28;20835;-66
2024/02/05 09:39:26;;;;;;;2.47;1.15;;;9.90;99.90;;;;;;5024658;28;20393;-67
2024/02/05 09:41:57;;;;;;;8.38;2.05;;;10.00;99.90;;;;;;5032052;28;20052;-66
2024/02/05 09:44:25;;;;;;;10.00;1.20;;;10.00;99.90;;;;;;5031586;28;20134;-66
2024/02/05 09:46:54;;;;;;;7.97;2.55;;;10.00;99.90;;;;;;5038634;28;20171;-66
2024/02/05 09:49:21;;;;;;;2.45;1.42;;;10.00;99.90;;;;;;5046552;28;20057;-66
2024/02/05 09:51:48;;;;;;;4.00;1.08;;;10.10;99.90;;;;;;5031094;28;20426;-66
2024/02/05 09:54:17;;;;;;;6.80;1.00;;;10.20;99.90;;;;;;5031040;28;20032;-66
2024/02/05 09:56:44;;;;;;;8.77;2.88;;;10.20;99.90;;;;;;5030848;28;20029;-66
2024/02/05 09:59:10;;;;;;;2.22;1.30;;;10.40;99.90;;;;;;5032320;28;20042;-66
2024/02/05 10:01:39;;;;;;;2.67;1.02;;;10.40;99.90;;;;;;5036478;28;20036;-66
2024/02/05 10:04:09;;;;;;;3.00;1.17;;;10.50;99.90;;;;;;5030395;28;22354;-66
2024/02/05 10:06:39;;;;;;;5.88;1.63;;;10.40;99.90;;;;;;5031525;28;20040;-66
2024/02/05 10:09:07;;;;;;;7.63;1.15;;;10.50;99.90;;;;;;5030356;28;20030;-66
2024/02/05 10:11:47;;;;;;;6.32;0.85;;;10.50;99.90;;;;;;5016617;28;20028;-66
2024/02/05 10:14:13;;;;;;;1.50;1.05;;;10.50;99.90;;;;;;5036904;28;20026;-66
2024/02/05 10:16:40;;;;;;;4.75;1.00;;;10.50;99.90;;;;;;5030458;28;20545;-66
2024/02/05 10:19:06;;;;;;;9.70;1.92;;;10.50;99.90;;;;;;5030297;28;20030;-66
2024/02/05 10:21:33;;;;;;;8.10;2.45;;;10.60;99.90;;;;;;5031396;28;20061;-66
2024/02/05 10:23:58;;;;;;;7.95;1.92;;;10.50;99.90;;;;;;5044879;28;20032;-66
2024/02/05 10:26:25;;;;;;;5.70;1.05;;;10.50;99.90;;;;;;5031499;28;20041;-66
2024/02/05 10:28:52;;;;;;;2.72;1.02;;;10.60;99.90;;;;;;5029273;28;20029;-66
2024/02/05 10:31:18;;;;;;;12.85;1.95;;;10.60;99.90;;;;;;5023086;28;20084;-66
2024/02/05 10:33:46;;;;;;;3.28;1.40;;;10.60;99.90;;;;;;5030426;28;20028;-66
2024/02/05 10:36:15;;;;;;;2.00;1.00;;;10.70;99.90;;;;;;5030734;28;20134;-66
2024/02/05 10:38:41;;;;;;;3.13;1.27;;;10.70;99.90;;;;;;5031214;28;20469;-66
2024/02/05 10:41:11;;;;;;;1.50;0.70;;;10.80;99.90;;;;;;5030851;28;20052;-66
2024/02/05 10:43:43;;;;;;;2.75;1.48;;;10.90;99.90;;;;;;5030160;28;20071;-66
2024/02/05 10:46:09;;;;;;;15.10;1.63;;;10.90;99.90;;;;;;5029913;28;20053;-66
2024/02/05 10:48:35;;;;;;;3.28;0.93;;;11.00;99.90;;;;;;5033344;28;20025;-66
2024/02/05 10:51:01;;;;;;;10.35;1.63;;;11.00;99.90;;;;;;5030582;28;20095;-66
2024/02/05 10:53:27;;;;;;;4.38;1.80;;;11.60;99.90;;;;;;5030254;28;20025;-66
2024/02/05 10:55:57;;;;;;;3.20;1.05;;;12.10;99.90;;;;;;5029912;28;20033;-66
2024/02/05 10:58:25;;;;;;;3.45;1.70;;;12.90;99.90;;;;;;5030903;28;20113;-66
2024/02/05 11:00:57;;;;;;;3.28;0.95;;;13.30;99.90;;;;;;5035856;28;20417;-66
2024/02/05 11:03:26;;;;;;;7.40;1.25;;;14.80;99.90;;;;;;5045059;28;20025;-66
2024/02/05 11:05:58;;;;;;;2.85;0.93;;;15.60;99.90;;;;;;5029457;28;20118;-66
2024/02/05 11:08:26;;;;;;;7.25;1.40;;;16.70;99.80;;;;;;5045302;28;20032;-65
2024/02/05 11:10:55;;;;;;;2.13;1.25;;;15.40;99.90;;;;;;5029624;28;20036;-65
2024/02/05 11:13:24;;;;;;;6.20;1.17;;;15.20;99.90;;;;;;5044463;28;20563;-65
2024/02/05 11:15:53;;;;;;;18.77;2.08;;;15.40;99.90;;;;;;5029386;28;20386;-66
2024/02/05 11:18:26;;;;;;;8.55;1.55;;;16.70;99.90;;;;;;5030053;28;20021;-65
2024/02/05 11:20:54;;;;;;;3.70;0.70;;;16.90;97.20;;;;;;5033704;28;20091;-66
2024/02/05 11:23:22;;;;;;;5.05;1.45;;;17.00;97.20;;;;;;5032893;28;20033;-66
2024/02/05 11:25:48;;;;;;;4.85;0.82;;;16.60;97.80;;;;;;5033794;28;20041;-65
2024/02/05 11:28:14;;;;;;;6.28;1.35;;;15.30;99.10;;;;;;5049644;28;20025;-65
2024/02/05 11:30:44;;;;;;;1.65;0.90;;;14.30;99.90;;;;;;5039477;28;20474;-65
2024/02/05 11:33:12;;;;;;;10.80;1.70;;;14.60;99.90;;;;;;5020938;28;20050;-65
2024/02/05 11:35:49;;;;;;;1.17;0.70;;;14.60;99.90;;;;;;5029043;28;20485;-66
2024/02/05 11:38:19;;;;;;;4.13;1.25;;;15.30;99.90;;;;;;5027094;28;20171;-65
2024/02/05 11:40:48;;;;;;;3.13;1.17;;;15.30;99.90;;;;;;5033593;28;20044;-65
2024/02/05 11:43:14;;;;;;;4.13;0.90;;;14.60;99.90;;;;;;5032183;28;20112;-68
2024/02/05 11:45:41;;;;;;;3.83;0.95;;;14.10;99.90;;;;;;5041673;28;20060;-69
2024/02/05 11:48:09;;;;;;;1.23;0.82;;;14.00;99.90;;;;;;5049285;28;20799;-68
2024/02/05 11:50:36;;;;;;;5.80;1.30;;;14.50;99.90;;;;;;5029846;28;20033;-69
2024/02/05 11:53:01;;;;;;;4.05;1.50;;;14.40;99.90;;;;;;5031166;28;20033;-69
2024/02/05 11:55:27;;;;;;;3.80;1.27;;;14.60;99.90;;;;;;5043082;28;20380;-69
2024/02/05 11:57:55;;;;;;;3.53;0.88;;;13.80;99.90;;;;;;5040667;28;20035;-70
2024/02/05 12:00:21;;;;;;;7.65;1.10;;;13.50;99.90;;;;;;5056258;28;20049;-69
2024/02/05 12:02:47;;;;;;;3.35;1.30;;;12.90;99.90;;;;;;5031251;28;20175;-69
2024/02/05 12:05:15;;;;;;;7.82;1.27;;;13.90;99.90;;;;;;5033079;28;20136;-69
2024/02/05 12:07:42;;;;;;;2.40;0.90;;;13.90;99.90;;;;;;5045726;28;20553;-68
2024/02/05 12:10:11;;;;;;;3.10;1.30;;;13.40;99.90;;;;;;5041268;28;20117;-68
2024/02/05 12:12:37;;;;;;;2.35;1.02;;;13.50;99.90;;;;;;5047599;28;20110;-70
2024/02/05 12:15:07;;;;;;;2.47;0.90;;;12.70;99.90;;;;;;5035106;28;20037;-70
2024/02/05 12:17:35;;;;;;;4.75;1.50;;;12.60;99.90;;;;;;5033554;28;20025;-68
2024/02/05 12:20:01;;;;;;;4.07;0.93;;;12.40;99.90;;;;;;5045149;28;20048;-69
2024/02/05 12:22:27;;;;;;;4.95;1.15;;;12.30;99.90;;;;;;5033918;28;20025;-69
2024/02/05 12:24:54;;;;;;;3.50;1.60;;;12.30;99.90;;;;;;5021500;28;20043;-69
2024/02/05 12:27:21;;;;;;;1.55;1.10;;;12.20;99.90;;;;;;5051329;28;20034;-70
2024/02/05 12:29:47;;;;;;;2.70;1.17;;;12.30;99.90;;;;;;5053380;28;20120;-69
2024/02/05 12:32:13;;;;;;;2.45;1.08;;;12.90;99.90;;;;;;5047661;28;20108;-69
2024/02/05 12:34:39;;;;;;;1.40;0.73;;;12.70;99.90;;;;;;5029197;28;20038;-69
2024/02/05 12:37:09;;;;;;;5.13;1.98;;;12.60;99.90;;;;;;5034790;28;20037;-69
2024/02/05 12:39:37;;;;;;;4.97;1.35;;;12.10;99.90;;;;;;5057557;28;20029;-69
2024/02/05 12:42:02;;;;;;;2.38;0.88;;;11.90;99.90;;;;;;5036257;28;20076;-72
2024/02/05 12:44:28;;;;;;;3.15;2.40;;;11.70;99.90;;;;;;5041990;28;20029;-69
2024/02/05 12:46:55;;;;;;;6.63;1.92;;;11.70;99.90;;;;;;5041123;28;20036;-68
2024/02/05 12:49:22;;;;;;;14.73;1.27;;;12.20;99.90;;;;;;5030854;28;20040;-69
2024/02/05 12:51:49;;;;;;;5.57;1.15;;;12.60;99.90;;;;;;5036000;28;20018;-69